createdAt,value
2023-04-28T00:00:56.698Z,411.38
2023-04-28T00:01:58.758Z,407.15
2023-04-28T00:03:03.637Z,387.00
2023-04-28T00:04:06.404Z,384.73
2023-04-28T00:05:12.532Z,410.05
2023-04-28T00:06:14.820Z,407.33
2023-04-28T00:07:19.437Z,373.55
2023-04-28T00:08:23.725Z,532.85
2023-04-28T00:09:28.436Z,386.10
2023-04-28T00:10:31.439Z,371.67
2023-04-28T00:11:38.757Z,432.40
2023-04-28T00:12:41.366Z,454.77
2023-04-28T00:13:46.003Z,387.02
2023-04-28T00:14:48.025Z,359.40
2023-04-28T00:15:53.226Z,367.02
2023-04-28T00:16:57.180Z,326.58
2023-04-28T00:18:01.916Z,279.13
2023-04-28T00:19:04.056Z,414.48
2023-04-28T00:20:10.299Z,331.92
2023-04-28T00:21:12.344Z,430.00
2023-04-28T00:22:16.991Z,373.42
2023-04-28T00:23:19.136Z,418.83
2023-04-28T00:24:23.804Z,375.48
2023-04-28T00:25:25.848Z,398.10
2023-04-28T00:26:31.723Z,378.10
2023-04-28T00:27:36.685Z,424.15
2023-04-28T00:28:41.529Z,443.70
2023-04-28T00:29:43.582Z,425.90
2023-04-28T00:30:45.591Z,409.60
2023-04-28T00:31:50.329Z,463.67
2023-04-28T00:32:52.734Z,389.30
2023-04-28T00:33:57.456Z,377.77
2023-04-28T00:34:59.583Z,481.42
2023-04-28T00:36:04.351Z,419.63
2023-04-28T00:37:06.506Z,345.52
2023-04-28T00:38:11.426Z,513.47
2023-04-28T00:39:13.477Z,355.90
2023-04-28T00:40:18.122Z,362.08
2023-04-28T00:41:20.138Z,383.08
2023-04-28T00:42:24.793Z,356.67
2023-04-28T00:43:29.749Z,374.65
2023-04-28T00:44:34.412Z,475.05
2023-04-28T00:45:36.837Z,420.52
2023-04-28T00:46:41.509Z,404.38
2023-04-28T00:47:43.727Z,505.08
2023-04-28T00:48:48.398Z,438.63
2023-04-28T00:49:50.538Z,431.63
2023-04-28T00:50:55.304Z,414.67
2023-04-28T00:51:57.873Z,416.05
2023-04-28T00:53:03.454Z,448.65
2023-04-28T00:54:06.897Z,475.15
2023-04-28T00:55:12.689Z,376.85
2023-04-28T00:56:15.099Z,353.17
2023-04-28T00:57:19.852Z,382.10
2023-04-28T00:58:22.162Z,343.95
2023-04-28T00:59:29.596Z,308.38
2023-04-28T01:00:31.765Z,397.05
2023-04-28T01:01:36.947Z,368.33
2023-04-28T01:02:39.456Z,374.08
2023-04-28T01:03:44.522Z,439.25
2023-04-28T01:04:47.459Z,333.90
2023-04-28T01:05:52.432Z,382.52
2023-04-28T01:06:56.518Z,327.75
2023-04-28T01:08:01.811Z,274.35
2023-04-28T01:09:05.909Z,220.13
2023-04-28T01:10:12.550Z,229.40
2023-04-28T01:11:14.710Z,267.13
2023-04-28T01:12:19.456Z,240.13
2023-04-28T01:13:21.608Z,223.18
2023-04-28T01:14:26.234Z,214.20
2023-04-28T01:15:31.344Z,245.88
2023-04-28T01:16:38.607Z,232.82
2023-04-28T01:17:40.791Z,221.73
2023-04-28T01:18:50.526Z,234.30
2023-04-28T01:19:53.242Z,280.63
2023-04-28T01:20:57.947Z,245.82
2023-04-28T01:22:00.149Z,264.35
2023-04-28T01:23:04.805Z,297.48
2023-04-28T01:24:09.479Z,232.63
2023-04-28T01:25:14.165Z,260.90
2023-04-28T01:26:16.295Z,288.77
2023-04-28T01:27:21.036Z,299.60
2023-04-28T01:28:23.106Z,307.00
2023-04-28T01:29:28.029Z,314.73
2023-04-28T01:30:30.069Z,325.30
2023-04-28T01:31:34.922Z,339.85
2023-04-28T01:32:37.051Z,359.75
2023-04-28T01:35:12.833Z,519.25
2023-04-28T01:36:14.934Z,333.42
2023-04-28T01:37:31.876Z,416.90
2023-04-28T01:38:33.988Z,308.02
2023-04-28T01:39:41.262Z,276.80
2023-04-28T01:40:43.385Z,310.73
2023-04-28T01:41:48.290Z,252.75
2023-04-28T01:42:50.395Z,292.60
2023-04-28T01:43:55.117Z,324.45
2023-04-28T01:44:57.182Z,240.73
2023-04-28T01:46:01.863Z,288.83
2023-04-28T01:47:04.116Z,297.50
2023-04-28T01:48:09.238Z,225.18
2023-04-28T01:49:11.319Z,299.88
2023-04-28T01:50:15.947Z,237.88
2023-04-28T01:51:18.090Z,221.98
2023-04-28T01:52:24.426Z,580.25
2023-04-28T01:53:26.595Z,277.27
2023-04-28T01:54:37.309Z,142.25
2023-04-28T01:55:41.948Z,257.73
2023-04-28T01:56:46.587Z,278.90
2023-04-28T01:57:48.599Z,309.83
2023-04-28T01:58:53.312Z,275.10
2023-04-28T01:59:55.579Z,267.40
2023-04-28T02:01:00.244Z,324.75
2023-04-28T02:02:02.350Z,322.90
2023-04-28T02:03:07.178Z,281.67
2023-04-28T02:04:09.487Z,296.88
2023-04-28T02:05:14.343Z,291.95
2023-04-28T02:06:16.406Z,279.77
2023-04-28T02:07:21.232Z,334.45
2023-04-28T02:08:23.299Z,309.00
2023-04-28T02:09:28.028Z,314.48
2023-04-28T02:10:30.341Z,299.58
2023-04-28T02:11:37.588Z,281.45
2023-04-28T02:12:40.481Z,363.48
2023-04-28T02:13:45.157Z,313.50
2023-04-28T02:14:47.418Z,262.45
2023-04-28T02:15:52.136Z,493.23
2023-04-28T02:16:54.291Z,360.63
2023-04-28T02:17:59.067Z,412.77
2023-04-28T02:19:01.268Z,360.75
2023-04-28T02:20:06.719Z,339.52
2023-04-28T02:21:10.261Z,328.63
2023-04-28T02:22:14.926Z,281.27
2023-04-28T02:23:16.983Z,278.20
2023-04-28T02:24:21.590Z,265.60
2023-04-28T02:25:23.653Z,321.80
2023-04-28T02:28:52.533Z,294.90
2023-04-28T02:29:54.634Z,311.67
2023-04-28T02:31:06.984Z,730.47
2023-04-28T02:32:09.158Z,237.27
2023-04-28T02:33:13.846Z,253.05
2023-04-28T02:34:16.178Z,272.25
2023-04-28T02:35:21.185Z,228.73
2023-04-28T02:36:23.263Z,227.65
2023-04-28T02:37:28.201Z,218.45
2023-04-28T02:38:31.674Z,218.30
2023-04-28T02:39:36.302Z,276.98
2023-04-28T02:40:38.404Z,287.30
2023-04-28T02:41:43.033Z,274.55
2023-04-28T02:42:45.039Z,233.90
2023-04-28T02:45:09.382Z,395.63
2023-04-28T02:46:12.009Z,249.93
2023-04-28T02:47:16.669Z,249.57
2023-04-28T02:48:18.795Z,258.33
2023-04-28T02:49:23.454Z,284.50
2023-04-28T02:50:25.486Z,263.98
2023-04-28T02:51:30.158Z,321.92
2023-04-28T02:52:32.192Z,365.65
2023-04-28T02:53:36.864Z,397.05
2023-04-28T02:54:38.920Z,344.23
2023-04-28T02:55:43.801Z,326.13
2023-04-28T02:56:48.619Z,358.90
2023-04-28T02:57:50.911Z,361.88
2023-04-28T02:58:55.643Z,394.92
2023-04-28T02:59:57.744Z,434.80
2023-04-28T03:03:06.433Z,458.73
2023-04-28T03:04:08.826Z,430.65
2023-04-28T03:05:13.726Z,367.58
2023-04-28T03:06:16.229Z,389.70
2023-04-28T03:07:20.917Z,414.38
2023-04-28T03:08:23.257Z,365.55
2023-04-28T03:09:27.904Z,446.88
2023-04-28T03:10:30.149Z,404.13
2023-04-28T03:11:34.795Z,397.73
2023-04-28T03:12:36.834Z,419.80
2023-04-28T03:13:41.833Z,448.38
2023-04-28T03:14:43.855Z,369.48
2023-04-28T03:15:48.544Z,400.27
2023-04-28T03:16:51.044Z,348.88
2023-04-28T03:17:55.808Z,345.80
2023-04-28T03:19:01.072Z,394.27
2023-04-28T03:20:05.883Z,427.10
2023-04-28T03:21:08.595Z,432.65
2023-04-28T03:22:13.327Z,422.48
2023-04-28T03:23:15.440Z,318.23
2023-04-28T03:24:20.317Z,309.83
2023-04-28T03:25:22.394Z,312.38
2023-04-28T03:26:27.131Z,305.60
2023-04-28T03:27:29.564Z,347.63
2023-04-28T03:28:34.870Z,385.20
2023-04-28T03:29:36.960Z,367.08
2023-04-28T03:30:41.732Z,316.70
2023-04-28T03:31:43.795Z,421.08
2023-04-28T03:32:48.553Z,318.98
2023-04-28T03:33:50.771Z,296.02
2023-04-28T03:34:58.008Z,324.15
2023-04-28T03:36:00.099Z,361.88
2023-04-28T03:37:04.807Z,417.67
2023-04-28T03:38:07.235Z,407.55
2023-04-28T03:39:11.946Z,448.95
2023-04-28T03:40:14.215Z,302.20
2023-04-28T03:41:18.898Z,299.45
2023-04-28T03:42:21.059Z,302.60
2023-04-28T03:43:25.748Z,286.05
2023-04-28T03:44:27.745Z,269.92
2023-04-28T03:45:32.507Z,268.52
2023-04-28T03:46:34.879Z,243.93
2023-04-28T03:47:39.678Z,290.65
2023-04-28T03:48:41.724Z,270.13
2023-04-28T03:49:46.363Z,289.63
2023-04-28T03:50:51.350Z,299.05
2023-04-28T03:51:56.186Z,282.25
2023-04-28T03:52:58.236Z,259.98
2023-04-28T03:54:02.941Z,275.95
2023-04-28T03:55:05.717Z,329.38
2023-04-28T03:57:32.623Z,219.55
2023-04-28T03:58:34.701Z,304.17
2023-04-28T03:59:39.380Z,271.20
2023-04-28T04:00:41.618Z,233.43
2023-04-28T04:01:46.439Z,258.48
2023-04-28T04:02:48.632Z,224.18
2023-04-28T04:03:53.718Z,216.02
2023-04-28T04:04:56.149Z,230.25
2023-04-28T04:06:03.712Z,254.02
2023-04-28T04:07:06.552Z,308.80
2023-04-28T04:08:11.209Z,312.02
2023-04-28T04:09:13.362Z,249.52
2023-04-28T04:10:17.989Z,272.83
2023-04-28T04:11:20.038Z,237.27
2023-04-28T04:12:24.787Z,323.77
2023-04-28T04:13:26.917Z,269.02
2023-04-28T04:14:31.622Z,231.85
2023-04-28T04:15:33.819Z,267.27
2023-04-28T04:16:39.405Z,296.48
2023-04-28T04:17:41.514Z,255.35
2023-04-28T04:18:46.391Z,358.05
2023-04-28T04:19:48.468Z,290.98
2023-04-28T04:20:54.431Z,249.52
2023-04-28T04:21:59.111Z,251.32
2023-04-28T04:23:04.758Z,329.67
2023-04-28T04:24:07.823Z,303.33
2023-04-28T04:25:12.770Z,435.63
2023-04-28T04:26:14.850Z,233.27
2023-04-28T04:27:19.632Z,290.10
2023-04-28T04:28:21.942Z,254.73
2023-04-28T04:29:26.610Z,251.60
2023-04-28T04:30:28.649Z,265.77
2023-04-28T04:31:33.375Z,269.63
2023-04-28T04:32:35.572Z,294.90
2023-04-28T04:33:40.327Z,304.00
2023-04-28T04:34:42.392Z,273.77
2023-04-28T04:35:47.429Z,254.55
2023-04-28T04:36:49.505Z,272.63
2023-04-28T04:37:56.907Z,250.43
2023-04-28T04:38:59.082Z,283.02
2023-04-28T04:40:03.913Z,246.25
2023-04-28T04:41:06.004Z,305.17
2023-04-28T04:42:24.242Z,310.63
2023-04-28T04:43:30.364Z,272.95
2023-04-28T04:44:32.457Z,227.55
2023-04-28T04:45:37.155Z,245.45
2023-04-28T04:46:39.341Z,290.70
2023-04-28T04:47:44.180Z,269.42
2023-04-28T04:48:46.281Z,263.88
2023-04-28T04:49:51.363Z,247.00
2023-04-28T04:50:53.482Z,226.60
2023-04-28T04:51:58.320Z,205.85
2023-04-28T04:53:03.002Z,276.10
2023-04-28T04:54:08.170Z,302.52
2023-04-28T04:55:11.525Z,280.75
2023-04-28T04:56:16.265Z,335.38
2023-04-28T04:57:18.396Z,210.73
2023-04-28T04:58:23.508Z,217.88
2023-04-28T04:59:25.636Z,251.05
2023-04-28T05:00:30.433Z,274.20
2023-04-28T05:01:32.608Z,237.15
2023-04-28T05:02:37.493Z,252.75
2023-04-28T05:03:39.962Z,272.60
2023-04-28T05:04:44.834Z,247.38
2023-04-28T05:05:47.200Z,228.60
2023-04-28T05:06:51.917Z,270.13
2023-04-28T05:07:54.045Z,201.98
2023-04-28T05:09:01.423Z,197.90
2023-04-28T05:10:03.589Z,359.35
2023-04-28T05:11:08.386Z,276.65
2023-04-28T05:12:10.559Z,260.20
2023-04-28T05:13:15.244Z,286.42
2023-04-28T05:14:17.932Z,250.98
2023-04-28T05:15:22.953Z,196.00
2023-04-28T05:16:27.698Z,225.60
2023-04-28T05:17:29.876Z,244.10
2023-04-28T05:18:34.708Z,236.15
2023-04-28T05:19:37.025Z,259.25
2023-04-28T05:20:41.734Z,254.90
2023-04-28T05:21:43.812Z,267.38
2023-04-28T05:22:48.691Z,226.68
2023-04-28T05:23:50.768Z,222.98
2023-04-28T05:24:58.299Z,216.40
2023-04-28T05:26:00.388Z,231.50
2023-04-28T05:27:32.323Z,708.10
2023-04-28T05:28:34.480Z,267.55
2023-04-28T05:29:39.165Z,254.75
2023-04-28T05:30:41.539Z,270.63
2023-04-28T05:31:46.292Z,264.88
2023-04-28T05:32:48.445Z,234.63
2023-04-28T05:33:53.120Z,236.38
2023-04-28T05:34:55.172Z,281.67
2023-04-28T05:35:59.970Z,246.68
2023-04-28T05:37:02.041Z,222.55
2023-04-28T05:38:07.224Z,275.77
2023-04-28T05:39:09.325Z,295.55
2023-04-28T05:40:16.929Z,244.88
2023-04-28T05:41:19.088Z,208.05
2023-04-28T05:42:23.807Z,270.85
2023-04-28T05:43:25.926Z,242.40
2023-04-28T05:44:30.663Z,216.98
2023-04-28T05:45:32.786Z,268.15
2023-04-28T05:46:37.610Z,247.13
2023-04-28T05:47:39.768Z,238.93
2023-04-28T05:48:44.528Z,213.48
2023-04-28T05:49:46.667Z,227.63
2023-04-28T05:50:51.434Z,205.30
2023-04-28T05:51:53.512Z,200.20
2023-04-28T05:52:58.496Z,198.57
2023-04-28T05:54:00.855Z,185.02
2023-04-28T05:55:05.511Z,214.75
2023-04-28T05:56:10.576Z,218.30
2023-04-28T05:57:15.391Z,215.80
2023-04-28T05:58:17.575Z,233.18
2023-04-28T05:59:22.598Z,197.55
2023-04-28T06:00:25.008Z,302.88
2023-04-28T06:01:29.715Z,210.02
2023-04-28T06:02:32.137Z,195.90
2023-04-28T06:03:37.171Z,231.10
2023-04-28T06:04:39.918Z,226.63
2023-04-28T06:05:45.176Z,276.38
2023-04-28T06:06:47.464Z,192.32
2023-04-28T06:07:54.472Z,211.15
2023-04-28T06:08:57.362Z,197.10
2023-04-28T06:10:02.047Z,197.30
2023-04-28T06:11:04.623Z,231.75
2023-04-28T06:12:12.085Z,269.05
2023-04-28T06:13:14.766Z,259.08
2023-04-28T06:14:20.109Z,237.68
2023-04-28T06:15:22.607Z,219.85
2023-04-28T06:16:27.398Z,223.27
2023-04-28T06:17:31.486Z,257.40
2023-04-28T06:18:36.280Z,257.92
2023-04-28T06:19:38.341Z,241.85
2023-04-28T06:20:43.039Z,227.27
2023-04-28T06:21:45.287Z,257.45
2023-04-28T06:22:49.963Z,214.38
2023-04-28T06:23:52.155Z,239.75
2023-04-28T06:24:56.958Z,223.60
2023-04-28T06:25:59.167Z,258.55
2023-04-28T06:27:03.824Z,601.85
2023-04-28T06:28:08.627Z,254.82
2023-04-28T06:29:13.393Z,275.58
2023-04-28T06:30:18.816Z,317.23
2023-04-28T06:31:23.543Z,226.90
2023-04-28T06:32:25.991Z,178.50
2023-04-28T06:33:30.757Z,260.73
2023-04-28T06:34:33.083Z,228.32
2023-04-28T06:35:39.289Z,217.10
2023-04-28T06:36:41.506Z,237.32
2023-04-28T06:37:46.417Z,230.30
2023-04-28T06:38:48.647Z,242.77
2023-04-28T06:39:53.289Z,207.43
2023-04-28T06:40:55.433Z,201.25
2023-04-28T06:42:02.092Z,242.73
2023-04-28T06:43:04.162Z,217.48
2023-04-28T06:44:11.438Z,249.82
2023-04-28T06:45:13.571Z,274.13
2023-04-28T06:46:18.226Z,242.65
2023-04-28T06:47:20.338Z,213.43
2023-04-28T06:48:26.244Z,236.98
2023-04-28T06:49:31.215Z,217.73
2023-04-28T06:50:36.397Z,231.02
2023-04-28T06:51:38.496Z,254.52
2023-04-28T06:52:43.186Z,254.57
2023-04-28T06:53:45.219Z,199.88
2023-04-28T06:54:49.862Z,254.45
2023-04-28T06:55:54.609Z,234.75
2023-04-28T06:56:59.360Z,195.40
2023-04-28T06:58:04.031Z,292.50
2023-04-28T06:59:08.740Z,236.70
2023-04-28T07:00:14.827Z,251.27
2023-04-28T07:01:19.632Z,268.77
2023-04-28T07:02:21.977Z,237.90
2023-04-28T07:03:26.960Z,209.20
2023-04-28T07:04:29.380Z,198.50
2023-04-28T07:07:35.541Z,325.75
2023-04-28T07:08:37.678Z,292.00
2023-04-28T07:09:42.350Z,218.20
2023-04-28T07:10:44.471Z,243.60
2023-04-28T07:11:49.135Z,213.68
2023-04-28T07:12:52.127Z,171.50
2023-04-28T07:13:56.817Z,239.80
2023-04-28T07:15:01.454Z,197.95
2023-04-28T07:16:06.807Z,205.02
2023-04-28T07:17:09.120Z,219.43
2023-04-28T07:18:13.784Z,250.75
2023-04-28T07:19:15.918Z,233.77
2023-04-28T07:20:20.757Z,238.45
2023-04-28T07:21:23.006Z,215.75
2023-04-28T07:22:27.862Z,157.20
2023-04-28T07:23:32.555Z,241.13
2023-04-28T07:24:35.053Z,252.02
2023-04-28T07:25:41.000Z,229.45
2023-04-28T07:26:52.809Z,691.75
2023-04-28T07:27:57.575Z,229.90
2023-04-28T07:28:59.612Z,232.27
2023-04-28T07:30:25.171Z,218.88
2023-04-28T07:31:31.910Z,226.93
2023-04-28T07:32:34.215Z,243.63
2023-04-28T07:33:38.873Z,314.45
2023-04-28T07:34:41.393Z,250.75
2023-04-28T07:35:46.203Z,211.13
2023-04-28T07:36:51.052Z,272.48
2023-04-28T07:37:53.548Z,244.60
2023-04-28T07:38:58.348Z,279.17
2023-04-28T07:40:00.832Z,354.35
2023-04-28T07:41:07.705Z,284.83
2023-04-28T07:42:12.440Z,347.58
2023-04-28T07:43:17.325Z,246.75
2023-04-28T07:44:19.771Z,309.27
2023-04-28T07:45:27.491Z,307.55
2023-04-28T07:46:29.865Z,238.18
2023-04-28T07:47:34.652Z,248.00
2023-04-28T07:48:39.391Z,262.58
2023-04-28T07:49:44.051Z,228.45
2023-04-28T07:50:46.108Z,257.88
2023-04-28T07:51:53.753Z,234.82
2023-04-28T07:52:58.485Z,198.10
2023-04-28T07:54:00.809Z,233.35
2023-04-28T07:55:05.567Z,295.95
2023-04-28T07:56:10.710Z,241.98
2023-04-28T07:57:12.800Z,268.70
2023-04-28T07:58:17.556Z,298.08
2023-04-28T07:59:19.703Z,278.98
2023-04-28T08:00:27.267Z,253.20
2023-04-28T08:01:29.764Z,225.40
2023-04-28T08:02:34.815Z,239.07
2023-04-28T08:03:37.347Z,291.90
2023-04-28T08:04:42.487Z,245.27
2023-04-28T08:05:45.492Z,253.45
2023-04-28T08:06:50.264Z,237.48
2023-04-28T08:07:52.345Z,226.52
2023-04-28T08:08:58.202Z,222.57
2023-04-28T08:10:01.337Z,288.85
2023-04-28T08:11:06.125Z,250.32
2023-04-28T08:12:08.231Z,261.45
2023-04-28T08:13:13.151Z,242.23
2023-04-28T08:14:15.468Z,287.85
2023-04-28T08:15:20.311Z,268.20
2023-04-28T08:16:27.699Z,254.90
2023-04-28T08:17:29.868Z,220.55
2023-04-28T08:18:34.936Z,248.10
2023-04-28T08:19:37.101Z,301.73
2023-04-28T08:20:41.868Z,256.33
2023-04-28T08:21:43.958Z,223.65
2023-04-28T08:22:48.988Z,244.32
2023-04-28T08:23:51.161Z,231.68
2023-04-28T08:24:55.978Z,244.95
2023-04-28T08:26:00.959Z,231.18
2023-04-28T08:27:03.884Z,695.95
2023-04-28T08:28:09.328Z,284.23
2023-04-28T08:29:13.979Z,268.55
2023-04-28T08:30:18.641Z,264.65
2023-04-28T08:31:20.801Z,242.45
2023-04-28T08:32:28.176Z,248.10
2023-04-28T08:33:32.818Z,255.95
2023-04-28T08:34:34.979Z,253.23
2023-04-28T08:35:39.694Z,260.48
2023-04-28T08:36:41.769Z,302.73
2023-04-28T08:37:46.614Z,251.02
2023-04-28T08:38:48.708Z,262.85
2023-04-28T08:40:00.217Z,225.35
2023-04-28T08:41:07.354Z,256.85
2023-04-28T08:42:09.551Z,252.15
2023-04-28T08:43:15.169Z,284.30
2023-04-28T08:44:18.020Z,248.68
2023-04-28T08:45:23.165Z,244.13
2023-04-28T08:46:28.388Z,240.07
2023-04-28T08:47:48.693Z,194.55
2023-04-28T08:49:02.636Z,211.05
2023-04-28T08:50:06.567Z,233.13
2023-04-28T08:51:11.908Z,219.07
2023-04-28T08:52:20.507Z,243.75
2023-04-28T08:53:30.291Z,254.52
2023-04-28T08:54:36.544Z,249.90
2023-04-28T08:55:42.268Z,247.77
2023-04-28T08:56:45.629Z,243.70
2023-04-28T08:57:54.282Z,252.63
2023-04-28T08:58:56.848Z,328.27
2023-04-28T09:00:02.116Z,269.70
2023-04-28T09:01:07.089Z,236.07
2023-04-28T09:02:12.085Z,302.35
2023-04-28T09:03:17.198Z,256.25
2023-04-28T09:04:22.466Z,296.55
2023-04-28T09:05:27.828Z,267.15
2023-04-28T09:06:33.078Z,206.48
2023-04-28T09:07:37.894Z,229.98
2023-04-28T09:08:42.898Z,241.63
2023-04-28T09:09:47.874Z,259.60
2023-04-28T09:11:09.099Z,242.32
2023-04-28T09:12:13.876Z,367.65
2023-04-28T09:13:28.472Z,412.45
2023-04-28T09:14:35.450Z,429.73
2023-04-28T09:15:41.253Z,539.45
2023-04-28T09:16:46.116Z,778.65
2023-04-28T09:17:49.200Z,777.25
2023-04-28T09:19:02.680Z,859.50
2023-04-28T09:20:20.151Z,830.60
2023-04-28T09:21:24.821Z,775.17
2023-04-28T09:22:28.808Z,782.33
2023-04-28T09:23:33.824Z,690.90
2023-04-28T09:24:40.661Z,463.33
2023-04-28T09:25:56.716Z,630.05
2023-04-28T09:27:31.693Z,1150.70
2023-04-28T09:28:37.546Z,714.97
2023-04-28T09:29:52.068Z,623.08
2023-04-28T09:30:57.368Z,638.90
2023-04-28T09:32:18.416Z,691.63
2023-04-28T09:33:21.950Z,592.25
2023-04-28T09:34:26.797Z,653.15
2023-04-28T09:35:42.948Z,664.40
2023-04-28T09:36:47.781Z,629.92
2023-04-28T09:38:01.367Z,548.97
2023-04-28T09:39:06.059Z,605.45
2023-04-28T09:40:10.328Z,601.08
2023-04-28T09:41:14.997Z,600.53
2023-04-28T09:42:32.974Z,569.92
2023-04-28T09:43:38.516Z,443.10
2023-04-28T09:44:43.282Z,509.80
2023-04-28T09:45:46.065Z,459.45
2023-04-28T09:46:50.986Z,416.98
2023-04-28T09:47:53.174Z,418.35
2023-04-28T09:49:04.007Z,408.23
2023-04-28T09:50:09.875Z,360.40
2023-04-28T09:51:23.686Z,344.48
2023-04-28T09:52:26.463Z,401.70
2023-04-28T09:53:33.423Z,469.20
2023-04-28T09:54:38.575Z,359.25
2023-04-28T09:55:44.586Z,583.38
2023-04-28T09:58:53.595Z,626.35
2023-04-28T09:59:58.907Z,749.33
2023-04-28T10:01:01.517Z,738.42
2023-04-28T10:02:22.617Z,787.55
2023-04-28T10:03:34.344Z,787.50
2023-04-28T10:04:37.075Z,807.17
2023-04-28T10:05:43.784Z,808.55
2023-04-28T10:06:51.867Z,831.15
2023-04-28T10:07:55.602Z,843.42
2023-04-28T10:09:01.694Z,791.63
2023-04-28T10:10:05.633Z,783.08
2023-04-28T10:11:11.736Z,805.35
2023-04-28T10:12:14.422Z,830.45
2023-04-28T10:13:20.472Z,838.63
2023-04-28T10:14:23.319Z,847.28
2023-04-28T10:16:01.843Z,813.60
2023-04-28T10:17:07.802Z,802.28
2023-04-28T10:18:10.889Z,805.40
2023-04-28T10:19:15.758Z,842.15
2023-04-28T10:20:18.952Z,858.08
2023-04-28T10:21:26.359Z,869.78
2023-04-28T10:22:48.251Z,895.60
2023-04-28T10:24:06.804Z,847.35
2023-04-28T10:25:28.059Z,982.53
2023-04-28T10:27:10.758Z,816.38
2023-04-28T10:30:27.476Z,690.92
2023-04-28T10:31:35.106Z,638.05
2023-04-28T10:32:39.941Z,606.70
2023-04-28T10:33:42.692Z,645.25
2023-04-28T10:34:47.567Z,730.60
2023-04-28T10:35:50.049Z,756.85
2023-04-28T10:36:56.037Z,739.58
2023-04-28T10:38:08.552Z,842.83
2023-04-28T10:39:15.491Z,801.95
2023-04-28T10:40:33.412Z,851.97
2023-04-28T10:41:38.521Z,763.10
2023-04-28T10:42:53.889Z,826.97
2023-04-28T10:43:58.542Z,787.05
2023-04-28T10:45:00.650Z,818.30
2023-04-28T10:46:07.063Z,850.92
2023-04-28T10:47:10.396Z,847.53
2023-04-28T10:48:15.110Z,858.60
2023-04-28T10:49:20.009Z,864.90
2023-04-28T10:50:29.296Z,869.85
2023-04-28T10:51:42.975Z,791.95
2023-04-28T10:52:51.503Z,789.72
2023-04-28T10:54:18.312Z,770.90
2023-04-28T10:55:37.713Z,787.47
2023-04-28T10:56:41.874Z,573.30
2023-04-28T10:57:47.407Z,471.10
2023-04-28T10:58:50.902Z,459.60
2023-04-28T11:00:15.928Z,453.48
2023-04-28T11:01:29.947Z,458.42
2023-04-28T11:02:46.418Z,393.15
2023-04-28T11:03:51.963Z,387.02
2023-04-28T11:05:22.030Z,396.63
2023-04-28T11:06:26.810Z,585.58
2023-04-28T11:07:31.625Z,782.35
2023-04-28T11:09:55.178Z,770.65
2023-04-28T11:11:33.829Z,726.85
2023-04-28T11:12:38.758Z,789.80
2023-04-28T11:13:42.446Z,767.25
2023-04-28T11:14:47.377Z,819.95
2023-04-28T11:16:03.406Z,556.13
2023-04-28T11:17:09.452Z,830.50
2023-04-28T11:18:19.530Z,853.10
2023-04-28T11:19:25.804Z,800.90
2023-04-28T11:20:29.207Z,880.22
2023-04-28T11:21:35.825Z,834.75
2023-04-28T11:22:38.164Z,767.67
2023-04-28T11:23:42.883Z,684.70
2023-04-28T11:25:01.759Z,744.72
2023-04-28T11:26:04.014Z,731.03
2023-04-28T11:27:27.373Z,789.72
2023-04-28T11:28:29.460Z,658.13
2023-04-28T11:29:36.255Z,562.88
2023-04-28T11:30:38.435Z,530.15
2023-04-28T11:31:44.405Z,479.70
2023-04-28T11:32:50.836Z,514.65
2023-04-28T11:34:05.530Z,398.92
2023-04-28T11:35:11.814Z,301.88
2023-04-28T11:36:30.401Z,560.50
2023-04-28T11:39:37.559Z,632.97
2023-04-28T11:40:57.065Z,741.28
2023-04-28T11:42:02.826Z,788.78
2023-04-28T11:43:05.073Z,778.03
2023-04-28T11:44:14.249Z,705.92
2023-04-28T11:45:16.418Z,845.63
2023-04-28T11:46:22.371Z,888.75
2023-04-28T11:47:34.520Z,845.00
2023-04-28T11:48:36.902Z,646.05
2023-04-28T11:49:49.728Z,627.45
2023-04-28T11:50:52.457Z,550.45
2023-04-28T11:52:00.474Z,495.60
2023-04-28T11:53:02.811Z,617.03
2023-04-28T11:54:12.052Z,693.45
2023-04-28T11:55:19.931Z,607.60
2023-04-28T11:56:24.579Z,678.78
2023-04-28T11:57:29.247Z,772.70
2023-04-28T11:58:31.306Z,773.80
2023-04-28T11:59:38.327Z,322.92
2023-04-28T12:00:42.037Z,361.90
2023-04-28T12:01:52.133Z,316.48
2023-04-28T12:02:57.878Z,229.25
2023-04-28T12:04:00.535Z,272.05
2023-04-28T12:05:11.017Z,472.25
2023-04-28T12:06:17.739Z,318.13
2023-04-28T12:07:22.721Z,314.05
2023-04-28T12:08:28.836Z,252.85
2023-04-28T12:09:34.119Z,231.77
2023-04-28T12:13:33.251Z,298.60
2023-04-28T12:14:59.762Z,275.95
2023-04-28T12:16:03.803Z,280.20
2023-04-28T12:17:08.454Z,343.88
2023-04-28T12:20:07.337Z,331.75
2023-04-28T12:21:21.821Z,258.77
2023-04-28T12:22:27.260Z,299.95
2023-04-28T12:23:31.188Z,348.58
2023-04-28T12:24:36.459Z,289.92
2023-04-28T12:25:44.094Z,287.83
2023-04-28T12:26:49.556Z,929.40
2023-04-28T12:28:04.871Z,291.77
2023-04-28T12:29:10.898Z,273.65
2023-04-28T12:30:28.322Z,318.02
2023-04-28T12:31:30.448Z,318.90
2023-04-28T12:32:43.647Z,288.52
2023-04-28T12:33:45.812Z,275.10
2023-04-28T12:35:05.312Z,243.48
2023-04-28T12:36:07.893Z,248.82
2023-04-28T12:37:12.793Z,253.23
2023-04-28T12:38:16.086Z,325.38
2023-04-28T12:39:23.212Z,293.70
2023-04-28T12:40:28.187Z,267.85
2023-04-28T12:41:30.282Z,331.48
2023-04-28T12:42:35.136Z,229.02
2023-04-28T12:43:37.225Z,300.73
2023-04-28T12:44:44.567Z,246.18
2023-04-28T12:45:46.786Z,194.98
2023-04-28T12:46:51.810Z,230.90
2023-04-28T12:49:24.655Z,269.45
2023-04-28T12:50:32.535Z,168.45
2023-04-28T12:51:36.664Z,242.68
2023-04-28T12:52:43.467Z,271.48
2023-04-28T12:53:45.554Z,252.35
2023-04-28T12:54:50.357Z,265.33
2023-04-28T12:55:52.532Z,221.65
2023-04-28T12:56:57.571Z,223.60
2023-04-28T12:57:59.782Z,309.88
2023-04-28T12:59:06.565Z,214.07
2023-04-28T13:00:16.496Z,244.70
2023-04-28T13:01:21.183Z,249.30
2023-04-28T13:02:26.161Z,392.23
2023-04-28T13:03:28.862Z,796.10
2023-04-28T13:04:34.269Z,753.10
2023-04-28T13:05:36.609Z,359.17
2023-04-28T13:06:44.467Z,404.20
2023-04-28T13:07:50.207Z,368.77
2023-04-28T13:08:52.295Z,349.05
2023-04-28T13:09:58.693Z,345.65
2023-04-28T13:11:02.975Z,385.25
2023-04-28T13:12:09.728Z,399.10
2023-04-28T13:13:11.986Z,367.15
2023-04-28T13:14:16.629Z,392.73
2023-04-28T13:15:21.623Z,469.33
2023-04-28T13:16:29.262Z,406.25
2023-04-28T13:17:34.141Z,529.20
2023-04-28T13:18:36.288Z,444.25
2023-04-28T13:19:41.200Z,419.70
2023-04-28T13:20:43.493Z,386.73
2023-04-28T13:21:48.842Z,374.25
2023-04-28T13:22:50.932Z,422.55
2023-04-28T13:23:56.189Z,404.80
2023-04-28T13:24:58.524Z,336.38
2023-04-28T13:26:04.465Z,400.65
2023-04-28T13:27:10.358Z,776.00
2023-04-28T13:28:13.648Z,399.85
2023-04-28T13:29:18.343Z,463.55
2023-04-28T13:30:23.114Z,520.60
2023-04-28T13:31:27.942Z,428.00
2023-04-28T13:32:30.038Z,267.25
2023-04-28T13:33:34.815Z,276.67
2023-04-28T13:34:40.308Z,198.57
2023-04-28T13:35:42.520Z,158.65
2023-04-28T13:36:48.319Z,270.77
2023-04-28T13:37:50.411Z,149.05
2023-04-28T13:38:55.095Z,189.88
2023-04-28T13:39:58.368Z,153.57
2023-04-28T13:41:03.233Z,429.10
2023-04-28T13:42:06.307Z,242.57
2023-04-28T13:43:10.986Z,277.63
2023-04-28T13:44:13.317Z,202.55
2023-04-28T13:45:19.556Z,301.70
2023-04-28T13:46:25.400Z,373.35
2023-04-28T13:47:32.827Z,561.40
2023-04-28T13:48:36.626Z,351.48
2023-04-28T13:49:41.342Z,476.73
2023-04-28T13:50:43.489Z,952.92
2023-04-28T13:51:48.374Z,1055.15
2023-04-28T13:52:51.178Z,1207.75
2023-04-28T13:53:55.945Z,960.17
2023-04-28T13:54:58.047Z,1025.97
2023-04-28T13:56:03.552Z,1186.22
2023-04-28T13:57:08.470Z,229.40
2023-04-28T13:58:10.690Z,356.45
2023-04-28T13:59:17.005Z,415.80